sensor_id;sensor_type;location;lat;lon;timestamp;P1;durP1;ratioP1;P2;durP2;ratioP2
28774;SDS011;15926;51.348;6.596;2024-03-23T00:54:31;9.55;;;3.20;;
28774;SDS011;15926;51.348;6.596;2024-03-23T00:56:57;11.98;;;3.17;;
28774;SDS011;15926;51.348;6.596;2024-03-23T00:59:23;10.07;;;3.20;;
28774;SDS011;15926;51.348;6.596;2024-03-23T01:01:53;13.45;;;2.60;;
28774;SDS011;15926;51.348;6.596;2024-03-23T01:04:19;11.85;;;3.97;;
28774;SDS011;15926;51.348;6.596;2024-03-23T01:06:45;13.13;;;2.78;;
28774;SDS011;15926;51.348;6.596;2024-03-23T01:09:12;9.10;;;1.90;;
28774;SDS011;15926;51.348;6.596;2024-03-23T01:11:38;4.65;;;1.98;;
28774;SDS011;15926;51.348;6.596;2024-03-23T01:14:04;7.63;;;1.75;;
28774;SDS011;15926;51.348;6.596;2024-03-23T01:16:31;9.73;;;2.00;;
28774;SDS011;15926;51.348;6.596;2024-03-23T01:18:57;6.70;;;1.77;;
28774;SDS011;15926;51.348;6.596;2024-03-23T01:21:23;13.60;;;1.83;;
28774;SDS011;15926;51.348;6.596;2024-03-23T01:23:49;10.32;;;1.98;;
28774;SDS011;15926;51.348;6.596;2024-03-23T01:26:15;4.25;;;1.55;;
28774;SDS011;15926;51.348;6.596;2024-03-23T01:28:41;5.95;;;1.60;;
28774;SDS011;15926;51.348;6.596;2024-03-23T01:31:07;5.10;;;1.45;;
28774;SDS011;15926;51.348;6.596;2024-03-23T01:33:33;7.88;;;1.75;;
28774;SDS011;15926;51.348;6.596;2024-03-23T01:35:59;11.15;;;2.53;;
28774;SDS011;15926;51.348;6.596;2024-03-23T01:38:25;9.90;;;1.38;;
28774;SDS011;15926;51.348;6.596;2024-03-23T01:40:56;7.93;;;1.92;;
28774;SDS011;15926;51.348;6.596;2024-03-23T01:43:22;3.97;;;1.90;;
28774;SDS011;15926;51.348;6.596;2024-03-23T01:45:48;11.43;;;2.05;;
28774;SDS011;15926;51.348;6.596;2024-03-23T01:48:14;6.88;;;1.50;;
28774;SDS011;15926;51.348;6.596;2024-03-23T01:50:40;5.07;;;1.50;;
28774;SDS011;15926;51.348;6.596;2024-03-23T01:53:06;6.55;;;1.60;;
28774;SDS011;15926;51.348;6.596;2024-03-23T01:55:33;10.52;;;1.60;;
28774;SDS011;15926;51.348;6.596;2024-03-23T01:57:59;10.25;;;1.73;;
28774;SDS011;15926;51.348;6.596;2024-03-23T02:00:25;11.05;;;1.55;;
28774;SDS011;15926;51.348;6.596;2024-03-23T02:02:52;4.38;;;1.65;;
28774;SDS011;15926;51.348;6.596;2024-03-23T02:05:19;5.22;;;1.48;;
28774;SDS011;15926;51.348;6.596;2024-03-23T02:07:45;9.20;;;1.75;;
28774;SDS011;15926;51.348;6.596;2024-03-23T02:10:12;8.30;;;1.70;;
28774;SDS011;15926;51.348;6.596;2024-03-23T02:12:38;10.43;;;1.70;;
28774;SDS011;15926;51.348;6.596;2024-03-23T02:15:04;8.70;;;1.60;;
28774;SDS011;15926;51.348;6.596;2024-03-23T02:17:31;4.90;;;2.55;;
28774;SDS011;15926;51.348;6.596;2024-03-23T02:19:57;7.63;;;1.75;;
28774;SDS011;15926;51.348;6.596;2024-03-23T02:22:23;7.78;;;2.05;;
28774;SDS011;15926;51.348;6.596;2024-03-23T02:24:49;6.30;;;1.95;;
28774;SDS011;15926;51.348;6.596;2024-03-23T02:27:15;10.43;;;1.85;;
28774;SDS011;15926;51.348;6.596;2024-03-23T02:29:41;9.50;;;2.35;;
28774;SDS011;15926;51.348;6.596;2024-03-23T02:32:07;5.07;;;2.22;;
28774;SDS011;15926;51.348;6.596;2024-03-23T02:34:34;9.57;;;1.88;;
28774;SDS011;15926;51.348;6.596;2024-03-23T02:37:00;5.63;;;1.80;;
28774;SDS011;15926;51.348;6.596;2024-03-23T02:39:26;6.75;;;1.67;;
28774;SDS011;15926;51.348;6.596;2024-03-23T02:41:52;5.57;;;2.03;;
28774;SDS011;15926;51.348;6.596;2024-03-23T02:44:18;9.82;;;2.10;;
28774;SDS011;15926;51.348;6.596;2024-03-23T02:46:44;8.25;;;2.47;;
28774;SDS011;15926;51.348;6.596;2024-03-23T02:49:10;13.82;;;3.30;;
28774;SDS011;15926;51.348;6.596;2024-03-23T02:51:36;6.30;;;1.80;;
28774;SDS011;15926;51.348;6.596;2024-03-23T02:54:02;10.88;;;1.95;;
28774;SDS011;15926;51.348;6.596;2024-03-23T02:56:28;9.98;;;1.70;;
28774;SDS011;15926;51.348;6.596;2024-03-23T02:58:54;10.63;;;2.33;;
28774;SDS011;15926;51.348;6.596;2024-03-23T03:01:20;7.43;;;1.60;;
28774;SDS011;15926;51.348;6.596;2024-03-23T03:03:46;9.38;;;2.00;;
28774;SDS011;15926;51.348;6.596;2024-03-23T03:06:22;4.38;;;1.80;;
28774;SDS011;15926;51.348;6.596;2024-03-23T03:08:48;10.32;;;2.08;;
28774;SDS011;15926;51.348;6.596;2024-03-23T03:11:14;5.88;;;2.30;;
28774;SDS011;15926;51.348;6.596;2024-03-23T03:13:40;7.80;;;2.30;;
28774;SDS011;15926;51.348;6.596;2024-03-23T03:16:08;9.13;;;2.15;;
28774;SDS011;15926;51.348;6.596;2024-03-23T03:18:34;8.38;;;1.63;;
28774;SDS011;15926;51.348;6.596;2024-03-23T03:21:00;5.95;;;2.15;;
28774;SDS011;15926;51.348;6.596;2024-03-23T03:23:27;7.72;;;2.42;;
28774;SDS011;15926;51.348;6.596;2024-03-23T03:25:53;7.82;;;2.63;;
28774;SDS011;15926;51.348;6.596;2024-03-23T03:28:19;12.65;;;2.70;;
28774;SDS011;15926;51.348;6.596;2024-03-23T03:30:45;9.90;;;1.63;;
28774;SDS011;15926;51.348;6.596;2024-03-23T03:33:11;7.57;;;1.90;;
28774;SDS011;15926;51.348;6.596;2024-03-23T03:35:37;4.70;;;2.10;;
28774;SDS011;15926;51.348;6.596;2024-03-23T03:38:04;7.80;;;2.13;;
28774;SDS011;15926;51.348;6.596;2024-03-23T03:40:30;8.07;;;1.65;;
28774;SDS011;15926;51.348;6.596;2024-03-23T03:42:56;7.10;;;2.08;;
28774;SDS011;15926;51.348;6.596;2024-03-23T03:45:22;7.80;;;1.52;;
28774;SDS011;15926;51.348;6.596;2024-03-23T03:47:48;8.23;;;1.83;;
28774;SDS011;15926;51.348;6.596;2024-03-23T03:50:14;5.05;;;1.70;;
28774;SDS011;15926;51.348;6.596;2024-03-23T03:52:40;6.70;;;2.15;;
28774;SDS011;15926;51.348;6.596;2024-03-23T03:55:11;7.75;;;2.17;;
28774;SDS011;15926;51.348;6.596;2024-03-23T03:57:38;15.50;;;2.55;;
28774;SDS011;15926;51.348;6.596;2024-03-23T04:00:04;6.35;;;2.00;;
28774;SDS011;15926;51.348;6.596;2024-03-23T04:02:30;10.30;;;2.08;;
28774;SDS011;15926;51.348;6.596;2024-03-23T04:04:56;8.57;;;1.65;;
28774;SDS011;15926;51.348;6.596;2024-03-23T04:07:22;11.45;;;2.25;;
28774;SDS011;15926;51.348;6.596;2024-03-23T04:09:49;13.27;;;2.85;;
28774;SDS011;15926;51.348;6.596;2024-03-23T04:12:15;7.88;;;2.42;;
28774;SDS011;15926;51.348;6.596;2024-03-23T04:14:41;9.75;;;2.65;;
28774;SDS011;15926;51.348;6.596;2024-03-23T04:17:07;7.68;;;2.55;;
28774;SDS011;15926;51.348;6.596;2024-03-23T04:19:33;9.88;;;2.80;;
28774;SDS011;15926;51.348;6.596;2024-03-23T04:21:59;11.55;;;2.65;;
28774;SDS011;15926;51.348;6.596;2024-03-23T04:24:25;12.38;;;2.97;;
28774;SDS011;15926;51.348;6.596;2024-03-23T04:26:51;10.85;;;2.58;;
28774;SDS011;15926;51.348;6.596;2024-03-23T04:29:17;13.07;;;3.65;;
28774;SDS011;15926;51.348;6.596;2024-03-23T04:31:43;13.30;;;3.08;;
28774;SDS011;15926;51.348;6.596;2024-03-23T04:34:09;16.00;;;3.10;;
28774;SDS011;15926;51.348;6.596;2024-03-23T04:36:35;12.13;;;2.97;;
28774;SDS011;15926;51.348;6.596;2024-03-23T04:39:01;10.52;;;3.20;;
28774;SDS011;15926;51.348;6.596;2024-03-23T04:41:27;10.75;;;3.13;;
28774;SDS011;15926;51.348;6.596;2024-03-23T04:43:53;12.45;;;3.33;;
28774;SDS011;15926;51.348;6.596;2024-03-23T04:46:20;16.80;;;4.13;;
28774;SDS011;15926;51.348;6.596;2024-03-23T04:48:46;9.38;;;3.80;;
28774;SDS011;15926;51.348;6.596;2024-03-23T04:51:22;12.05;;;3.95;;
28774;SDS011;15926;51.348;6.596;2024-03-23T04:53:48;14.40;;;5.20;;
28774;SDS011;15926;51.348;6.596;2024-03-23T04:56:17;14.93;;;4.47;;
28774;SDS011;15926;51.348;6.596;2024-03-23T05:01:10;16.13;;;4.47;;
28774;SDS011;15926;51.348;6.596;2024-03-23T05:03:36;15.43;;;4.47;;
28774;SDS011;15926;51.348;6.596;2024-03-23T05:06:02;11.48;;;4.90;;
28774;SDS011;15926;51.348;6.596;2024-03-23T05:08:30;11.95;;;5.20;;
28774;SDS011;15926;51.348;6.596;2024-03-23T05:10:56;13.55;;;4.88;;
28774;SDS011;15926;51.348;6.596;2024-03-23T05:13:22;15.80;;;4.93;;
28774;SDS011;15926;51.348;6.596;2024-03-23T05:15:54;13.85;;;4.43;;
28774;SDS011;15926;51.348;6.596;2024-03-23T05:18:21;12.90;;;4.70;;
28774;SDS011;15926;51.348;6.596;2024-03-23T05:20:47;11.73;;;4.82;;
28774;SDS011;15926;51.348;6.596;2024-03-23T05:23:13;12.93;;;4.80;;
28774;SDS011;15926;51.348;6.596;2024-03-23T05:25:39;11.18;;;4.40;;
28774;SDS011;15926;51.348;6.596;2024-03-23T05:28:05;12.45;;;4.55;;
28774;SDS011;15926;51.348;6.596;2024-03-23T05:30:31;13.95;;;6.35;;
28774;SDS011;15926;51.348;6.596;2024-03-23T05:32:58;17.88;;;5.55;;
28774;SDS011;15926;51.348;6.596;2024-03-23T05:35:24;17.02;;;6.18;;
28774;SDS011;15926;51.348;6.596;2024-03-23T05:37:50;18.85;;;6.35;;
28774;SDS011;15926;51.348;6.596;2024-03-23T05:40:16;17.63;;;7.43;;
28774;SDS011;15926;51.348;6.596;2024-03-23T05:42:42;22.23;;;7.30;;
28774;SDS011;15926;51.348;6.596;2024-03-23T05:45:08;18.55;;;8.07;;
28774;SDS011;15926;51.348;6.596;2024-03-23T05:47:34;16.55;;;8.40;;
28774;SDS011;15926;51.348;6.596;2024-03-23T05:50:00;18.73;;;8.07;;
28774;SDS011;15926;51.348;6.596;2024-03-23T05:52:27;20.63;;;9.00;;
28774;SDS011;15926;51.348;6.596;2024-03-23T05:54:53;26.65;;;8.77;;
28774;SDS011;15926;51.348;6.596;2024-03-23T05:57:19;20.35;;;8.55;;
28774;SDS011;15926;51.348;6.596;2024-03-23T05:59:45;16.45;;;7.65;;
28774;SDS011;15926;51.348;6.596;2024-03-23T06:02:11;23.20;;;9.15;;
28774;SDS011;15926;51.348;6.596;2024-03-23T06:04:37;18.48;;;8.73;;
28774;SDS011;15926;51.348;6.596;2024-03-23T06:07:03;21.17;;;8.82;;
28774;SDS011;15926;51.348;6.596;2024-03-23T06:09:32;29.25;;;10.15;;
28774;SDS011;15926;51.348;6.596;2024-03-23T06:11:58;20.52;;;8.27;;
28774;SDS011;15926;51.348;6.596;2024-03-23T06:14:24;20.45;;;8.20;;
28774;SDS011;15926;51.348;6.596;2024-03-23T06:16:50;25.55;;;7.85;;
28774;SDS011;15926;51.348;6.596;2024-03-23T06:19:16;22.70;;;8.43;;
28774;SDS011;15926;51.348;6.596;2024-03-23T06:21:45;21.25;;;8.20;;
28774;SDS011;15926;51.348;6.596;2024-03-23T06:24:11;25.42;;;8.85;;
28774;SDS011;15926;51.348;6.596;2024-03-23T06:26:38;26.65;;;8.13;;
28774;SDS011;15926;51.348;6.596;2024-03-23T06:29:04;15.82;;;7.68;;
28774;SDS011;15926;51.348;6.596;2024-03-23T06:31:30;19.35;;;7.20;;
28774;SDS011;15926;51.348;6.596;2024-03-23T06:33:56;17.75;;;7.63;;
28774;SDS011;15926;51.348;6.596;2024-03-23T06:36:22;19.67;;;7.45;;
28774;SDS011;15926;51.348;6.596;2024-03-23T06:38:48;24.65;;;7.72;;
28774;SDS011;15926;51.348;6.596;2024-03-23T06:41:14;15.95;;;7.10;;
28774;SDS011;15926;51.348;6.596;2024-03-23T06:43:40;20.83;;;8.80;;
28774;SDS011;15926;51.348;6.596;2024-03-23T06:46:06;19.02;;;7.85;;
28774;SDS011;15926;51.348;6.596;2024-03-23T06:48:32;18.17;;;7.00;;
28774;SDS011;15926;51.348;6.596;2024-03-23T06:50:58;24.70;;;8.15;;
28774;SDS011;15926;51.348;6.596;2024-03-23T06:53:24;18.90;;;7.60;;
28774;SDS011;15926;51.348;6.596;2024-03-23T06:55:51;19.85;;;7.55;;
28774;SDS011;15926;51.348;6.596;2024-03-23T06:58:18;21.38;;;7.35;;
28774;SDS011;15926;51.348;6.596;2024-03-23T07:00:45;16.85;;;6.97;;
28774;SDS011;15926;51.348;6.596;2024-03-23T07:03:11;22.25;;;7.32;;
28774;SDS011;15926;51.348;6.596;2024-03-23T07:05:37;17.42;;;7.15;;
28774;SDS011;15926;51.348;6.596;2024-03-23T07:08:03;17.88;;;6.55;;
28774;SDS011;15926;51.348;6.596;2024-03-23T07:10:29;21.58;;;7.45;;
28774;SDS011;15926;51.348;6.596;2024-03-23T07:12:55;27.27;;;7.53;;
28774;SDS011;15926;51.348;6.596;2024-03-23T07:15:21;26.00;;;7.35;;
28774;SDS011;15926;51.348;6.596;2024-03-23T07:17:47;21.58;;;7.40;;
28774;SDS011;15926;51.348;6.596;2024-03-23T07:20:13;10.70;;;5.75;;
28774;SDS011;15926;51.348;6.596;2024-03-23T07:22:39;22.63;;;6.68;;
28774;SDS011;15926;51.348;6.596;2024-03-23T07:25:05;19.92;;;6.20;;
28774;SDS011;15926;51.348;6.596;2024-03-23T07:27:32;19.27;;;6.25;;
28774;SDS011;15926;51.348;6.596;2024-03-23T07:29:58;18.52;;;6.28;;
28774;SDS011;15926;51.348;6.596;2024-03-23T07:32:26;18.13;;;5.40;;
28774;SDS011;15926;51.348;6.596;2024-03-23T07:34:52;13.07;;;4.95;;
28774;SDS011;15926;51.348;6.596;2024-03-23T07:37:18;16.70;;;5.70;;
28774;SDS011;15926;51.348;6.596;2024-03-23T07:39:44;18.52;;;5.65;;
28774;SDS011;15926;51.348;6.596;2024-03-23T07:42:10;23.73;;;6.35;;
28774;SDS011;15926;51.348;6.596;2024-03-23T07:44:36;13.80;;;5.50;;
28774;SDS011;15926;51.348;6.596;2024-03-23T07:47:02;15.85;;;4.93;;
28774;SDS011;15926;51.348;6.596;2024-03-23T07:49:28;16.20;;;5.68;;
28774;SDS011;15926;51.348;6.596;2024-03-23T07:51:54;18.23;;;5.32;;
28774;SDS011;15926;51.348;6.596;2024-03-23T07:54:20;17.45;;;4.97;;
28774;SDS011;15926;51.348;6.596;2024-03-23T07:56:46;10.85;;;4.75;;
28774;SDS011;15926;51.348;6.596;2024-03-23T07:59:12;11.38;;;4.50;;
28774;SDS011;15926;51.348;6.596;2024-03-23T08:01:38;13.10;;;5.22;;
28774;SDS011;15926;51.348;6.596;2024-03-23T08:04:05;12.25;;;4.97;;
28774;SDS011;15926;51.348;6.596;2024-03-23T08:06:31;9.32;;;4.78;;
28774;SDS011;15926;51.348;6.596;2024-03-23T08:08:57;11.48;;;4.22;;
28774;SDS011;15926;51.348;6.596;2024-03-23T08:11:27;12.15;;;4.20;;
28774;SDS011;15926;51.348;6.596;2024-03-23T08:13:53;18.33;;;4.50;;
28774;SDS011;15926;51.348;6.596;2024-03-23T08:16:19;10.82;;;3.60;;
28774;SDS011;15926;51.348;6.596;2024-03-23T08:18:46;8.50;;;2.88;;
28774;SDS011;15926;51.348;6.596;2024-03-23T08:21:12;11.15;;;3.40;;
28774;SDS011;15926;51.348;6.596;2024-03-23T08:23:38;6.78;;;2.67;;
28774;SDS011;15926;51.348;6.596;2024-03-23T08:26:15;4.25;;;1.70;;
28774;SDS011;15926;51.348;6.596;2024-03-23T08:28:42;2.15;;;1.10;;
28774;SDS011;15926;51.348;6.596;2024-03-23T08:31:10;3.28;;;0.80;;
28774;SDS011;15926;51.348;6.596;2024-03-23T08:33:36;1.10;;;0.88;;
28774;SDS011;15926;51.348;6.596;2024-03-23T08:36:05;3.88;;;1.00;;
28774;SDS011;15926;51.348;6.596;2024-03-23T08:38:32;4.55;;;1.00;;
28774;SDS011;15926;51.348;6.596;2024-03-23T08:41:02;2.15;;;0.80;;
28774;SDS011;15926;51.348;6.596;2024-03-23T08:43:29;4.70;;;1.00;;
28774;SDS011;15926;51.348;6.596;2024-03-23T08:46:14;2.28;;;1.17;;
28774;SDS011;15926;51.348;6.596;2024-03-23T08:48:44;4.60;;;1.08;;
28774;SDS011;15926;51.348;6.596;2024-03-23T08:51:12;4.90;;;1.30;;
28774;SDS011;15926;51.348;6.596;2024-03-23T08:53:38;2.50;;;1.38;;
28774;SDS011;15926;51.348;6.596;2024-03-23T08:56:05;3.38;;;1.90;;
28774;SDS011;15926;51.348;6.596;2024-03-23T08:58:31;5.80;;;2.85;;
28774;SDS011;15926;51.348;6.596;2024-03-23T09:03:30;10.60;;;2.90;;
28774;SDS011;15926;51.348;6.596;2024-03-23T09:05:56;8.48;;;4.63;;
28774;SDS011;15926;51.348;6.596;2024-03-23T09:08:23;8.13;;;3.35;;
28774;SDS011;15926;51.348;6.596;2024-03-23T09:10:49;12.20;;;3.78;;
28774;SDS011;15926;51.348;6.596;2024-03-23T09:13:15;10.25;;;4.22;;
28774;SDS011;15926;51.348;6.596;2024-03-23T09:15:51;10.70;;;3.63;;
28774;SDS011;15926;51.348;6.596;2024-03-23T09:18:21;10.73;;;4.00;;
28774;SDS011;15926;51.348;6.596;2024-03-23T09:20:47;8.50;;;3.17;;
28774;SDS011;15926;51.348;6.596;2024-03-23T09:23:13;13.20;;;4.00;;
28774;SDS011;15926;51.348;6.596;2024-03-23T09:25:40;11.63;;;2.80;;
28774;SDS011;15926;51.348;6.596;2024-03-23T09:28:08;11.23;;;3.10;;
28774;SDS011;15926;51.348;6.596;2024-03-23T09:30:34;10.82;;;3.08;;
28774;SDS011;15926;51.348;6.596;2024-03-23T09:33:00;8.82;;;2.70;;
28774;SDS011;15926;51.348;6.596;2024-03-23T09:35:27;10.90;;;3.17;;
28774;SDS011;15926;51.348;6.596;2024-03-23T09:37:53;6.18;;;2.80;;
28774;SDS011;15926;51.348;6.596;2024-03-23T09:40:19;9.00;;;2.47;;
28774;SDS011;15926;51.348;6.596;2024-03-23T09:42:49;6.55;;;2.25;;
28774;SDS011;15926;51.348;6.596;2024-03-23T09:45:26;7.20;;;2.50;;
28774;SDS011;15926;51.348;6.596;2024-03-23T09:47:52;6.32;;;2.10;;
28774;SDS011;15926;51.348;6.596;2024-03-23T09:50:18;6.22;;;2.10;;
28774;SDS011;15926;51.348;6.596;2024-03-23T09:52:47;6.50;;;1.73;;
28774;SDS011;15926;51.348;6.596;2024-03-23T09:55:14;9.63;;;3.17;;
28774;SDS011;15926;51.348;6.596;2024-03-23T09:57:40;7.97;;;2.13;;
28774;SDS011;15926;51.348;6.596;2024-03-23T10:00:06;5.22;;;1.55;;
28774;SDS011;15926;51.348;6.596;2024-03-23T10:02:33;6.50;;;1.98;;
28774;SDS011;15926;51.348;6.596;2024-03-23T10:05:00;6.55;;;1.92;;
28774;SDS011;15926;51.348;6.596;2024-03-23T10:07:26;4.53;;;1.48;;
28774;SDS011;15926;51.348;6.596;2024-03-23T10:09:55;8.70;;;1.60;;
28774;SDS011;15926;51.348;6.596;2024-03-23T10:12:22;9.63;;;1.73;;
28774;SDS011;15926;51.348;6.596;2024-03-23T10:14:48;8.43;;;2.13;;
28774;SDS011;15926;51.348;6.596;2024-03-23T10:17:15;5.97;;;1.90;;
28774;SDS011;15926;51.348;6.596;2024-03-23T10:19:45;6.88;;;1.77;;
28774;SDS011;15926;51.348;6.596;2024-03-23T10:22:20;6.35;;;1.73;;
28774;SDS011;15926;51.348;6.596;2024-03-23T10:24:46;7.47;;;2.03;;
28774;SDS011;15926;51.348;6.596;2024-03-23T10:27:15;6.28;;;1.02;;
28774;SDS011;15926;51.348;6.596;2024-03-23T10:29:43;3.78;;;1.45;;
28774;SDS011;15926;51.348;6.596;2024-03-23T10:32:10;2.33;;;1.02;;
28774;SDS011;15926;51.348;6.596;2024-03-23T10:34:36;3.00;;;0.80;;
28774;SDS011;15926;51.348;6.596;2024-03-23T10:37:03;1.58;;;0.82;;
28774;SDS011;15926;51.348;6.596;2024-03-23T10:39:36;1.73;;;1.02;;
28774;SDS011;15926;51.348;6.596;2024-03-23T10:42:05;2.45;;;1.15;;
28774;SDS011;15926;51.348;6.596;2024-03-23T10:44:32;1.33;;;0.88;;
28774;SDS011;15926;51.348;6.596;2024-03-23T10:46:58;3.30;;;0.70;;
28774;SDS011;15926;51.348;6.596;2024-03-23T10:49:26;4.70;;;0.70;;
28774;SDS011;15926;51.348;6.596;2024-03-23T10:51:54;2.58;;;0.70;;
28774;SDS011;15926;51.348;6.596;2024-03-23T10:54:20;0.98;;;0.60;;
28774;SDS011;15926;51.348;6.596;2024-03-23T10:56:47;1.95;;;0.40;;
28774;SDS011;15926;51.348;6.596;2024-03-23T10:59:15;1.08;;;0.60;;
28774;SDS011;15926;51.348;6.596;2024-03-23T11:01:54;1.85;;;0.70;;
28774;SDS011;15926;51.348;6.596;2024-03-23T11:04:30;1.33;;;0.70;;
28774;SDS011;15926;51.348;6.596;2024-03-23T11:06:59;1.63;;;1.02;;
28774;SDS011;15926;51.348;6.596;2024-03-23T11:09:47;0.95;;;0.65;;
28774;SDS011;15926;51.348;6.596;2024-03-23T11:15:00;3.17;;;1.02;;
28774;SDS011;15926;51.348;6.596;2024-03-23T11:17:26;2.58;;;1.08;;
28774;SDS011;15926;51.348;6.596;2024-03-23T11:19:53;2.03;;;1.00;;
28774;SDS011;15926;51.348;6.596;2024-03-23T11:27:38;3.50;;;1.65;;
28774;SDS011;15926;51.348;6.596;2024-03-23T11:30:13;2.70;;;1.20;;
28774;SDS011;15926;51.348;6.596;2024-03-23T11:32:40;3.47;;;1.77;;
28774;SDS011;15926;51.348;6.596;2024-03-23T11:35:07;3.10;;;1.30;;
28774;SDS011;15926;51.348;6.596;2024-03-23T11:37:35;3.55;;;1.17;;
28774;SDS011;15926;51.348;6.596;2024-03-23T11:40:01;3.85;;;0.50;;
28774;SDS011;15926;51.348;6.596;2024-03-23T11:42:27;0.80;;;0.60;;
28774;SDS011;15926;51.348;6.596;2024-03-23T11:44:53;1.48;;;0.60;;
28774;SDS011;15926;51.348;6.596;2024-03-23T11:47:21;4.10;;;1.10;;
28774;SDS011;15926;51.348;6.596;2024-03-23T11:49:48;3.08;;;0.93;;
28774;SDS011;15926;51.348;6.596;2024-03-23T11:52:14;3.97;;;1.10;;
28774;SDS011;15926;51.348;6.596;2024-03-23T11:54:41;3.13;;;1.02;;
28774;SDS011;15926;51.348;6.596;2024-03-23T11:57:08;4.32;;;1.15;;
28774;SDS011;15926;51.348;6.596;2024-03-23T11:59:34;4.35;;;1.10;;
28774;SDS011;15926;51.348;6.596;2024-03-23T12:02:05;1.83;;;0.80;;
28774;SDS011;15926;51.348;6.596;2024-03-23T12:04:32;2.33;;;0.70;;
28774;SDS011;15926;51.348;6.596;2024-03-23T12:09:46;3.13;;;0.90;;
28774;SDS011;15926;51.348;6.596;2024-03-23T12:12:15;5.30;;;1.05;;
28774;SDS011;15926;51.348;6.596;2024-03-23T12:14:42;3.08;;;1.30;;
28774;SDS011;15926;51.348;6.596;2024-03-23T12:17:09;4.25;;;1.20;;
28774;SDS011;15926;51.348;6.596;2024-03-23T12:19:35;3.47;;;1.20;;
28774;SDS011;15926;51.348;6.596;2024-03-23T12:22:02;3.92;;;1.13;;
28774;SDS011;15926;51.348;6.596;2024-03-23T12:24:28;2.45;;;1.45;;
28774;SDS011;15926;51.348;6.596;2024-03-23T12:26:54;3.75;;;1.38;;
28774;SDS011;15926;51.348;6.596;2024-03-23T12:29:21;7.53;;;1.80;;
28774;SDS011;15926;51.348;6.596;2024-03-23T12:31:47;5.18;;;1.60;;
28774;SDS011;15926;51.348;6.596;2024-03-23T12:34:13;1.77;;;1.08;;
28774;SDS011;15926;51.348;6.596;2024-03-23T12:36:39;2.83;;;0.70;;
28774;SDS011;15926;51.348;6.596;2024-03-23T12:39:05;3.88;;;0.68;;
28774;SDS011;15926;51.348;6.596;2024-03-23T12:41:32;0.60;;;0.57;;
28774;SDS011;15926;51.348;6.596;2024-03-23T12:43:58;1.98;;;0.68;;
28774;SDS011;15926;51.348;6.596;2024-03-23T12:46:24;2.05;;;0.90;;
28774;SDS011;15926;51.348;6.596;2024-03-23T12:48:50;3.03;;;1.02;;
28774;SDS011;15926;51.348;6.596;2024-03-23T12:51:16;4.70;;;1.13;;
28774;SDS011;15926;51.348;6.596;2024-03-23T12:53:42;3.85;;;1.10;;
28774;SDS011;15926;51.348;6.596;2024-03-23T12:56:11;3.03;;;0.90;;
28774;SDS011;15926;51.348;6.596;2024-03-23T12:58:37;3.53;;;1.10;;
28774;SDS011;15926;51.348;6.596;2024-03-23T13:01:03;4.05;;;0.90;;
28774;SDS011;15926;51.348;6.596;2024-03-23T13:03:31;1.50;;;0.70;;
28774;SDS011;15926;51.348;6.596;2024-03-23T13:05:57;0.90;;;0.50;;
28774;SDS011;15926;51.348;6.596;2024-03-23T13:08:23;1.42;;;0.80;;
28774;SDS011;15926;51.348;6.596;2024-03-23T13:10:52;4.72;;;1.13;;
28774;SDS011;15926;51.348;6.596;2024-03-23T13:13:18;2.63;;;0.98;;
28774;SDS011;15926;51.348;6.596;2024-03-23T13:15:50;4.80;;;1.08;;
28774;SDS011;15926;51.348;6.596;2024-03-23T13:18:16;3.22;;;0.70;;
28774;SDS011;15926;51.348;6.596;2024-03-23T13:20:42;3.28;;;0.70;;
28774;SDS011;15926;51.348;6.596;2024-03-23T13:23:08;2.40;;;0.63;;
28774;SDS011;15926;51.348;6.596;2024-03-23T13:25:34;0.93;;;0.85;;
28774;SDS011;15926;51.348;6.596;2024-03-23T13:28:02;2.03;;;0.63;;
28774;SDS011;15926;51.348;6.596;2024-03-23T13:30:28;1.38;;;0.52;;
28774;SDS011;15926;51.348;6.596;2024-03-23T13:32:54;2.65;;;1.00;;
28774;SDS011;15926;51.348;6.596;2024-03-23T13:35:21;1.83;;;0.60;;
28774;SDS011;15926;51.348;6.596;2024-03-23T13:37:47;1.65;;;0.50;;
28774;SDS011;15926;51.348;6.596;2024-03-23T13:40:13;1.20;;;0.40;;
28774;SDS011;15926;51.348;6.596;2024-03-23T13:42:39;5.15;;;1.08;;
28774;SDS011;15926;51.348;6.596;2024-03-23T13:45:05;2.33;;;0.73;;
28774;SDS011;15926;51.348;6.596;2024-03-23T13:47:32;3.95;;;0.60;;
28774;SDS011;15926;51.348;6.596;2024-03-23T13:49:58;1.58;;;0.70;;
28774;SDS011;15926;51.348;6.596;2024-03-23T13:52:24;3.85;;;0.70;;
28774;SDS011;15926;51.348;6.596;2024-03-23T13:54:51;5.15;;;1.10;;
28774;SDS011;15926;51.348;6.596;2024-03-23T13:57:17;2.42;;;0.70;;
28774;SDS011;15926;51.348;6.596;2024-03-23T13:59:46;5.20;;;0.98;;
28774;SDS011;15926;51.348;6.596;2024-03-23T14:02:13;2.28;;;0.82;;
28774;SDS011;15926;51.348;6.596;2024-03-23T14:04:40;2.42;;;0.77;;
28774;SDS011;15926;51.348;6.596;2024-03-23T14:07:06;5.38;;;0.98;;
28774;SDS011;15926;51.348;6.596;2024-03-23T14:09:34;2.03;;;0.60;;
28774;SDS011;15926;51.348;6.596;2024-03-23T14:12:00;2.85;;;0.80;;
28774;SDS011;15926;51.348;6.596;2024-03-23T14:14:26;1.45;;;0.70;;
28774;SDS011;15926;51.348;6.596;2024-03-23T14:16:52;1.88;;;0.88;;
28774;SDS011;15926;51.348;6.596;2024-03-23T14:19:18;4.82;;;1.15;;
28774;SDS011;15926;51.348;6.596;2024-03-23T14:21:44;3.72;;;0.90;;
28774;SDS011;15926;51.348;6.596;2024-03-23T14:24:11;4.03;;;1.10;;
28774;SDS011;15926;51.348;6.596;2024-03-23T14:26:37;0.60;;;0.60;;
28774;SDS011;15926;51.348;6.596;2024-03-23T14:29:03;3.95;;;0.82;;
28774;SDS011;15926;51.348;6.596;2024-03-23T14:31:29;1.67;;;0.73;;
28774;SDS011;15926;51.348;6.596;2024-03-23T14:33:55;2.53;;;0.88;;
28774;SDS011;15926;51.348;6.596;2024-03-23T14:36:21;2.45;;;0.75;;
28774;SDS011;15926;51.348;6.596;2024-03-23T14:38:48;2.95;;;0.73;;
28774;SDS011;15926;51.348;6.596;2024-03-23T14:41:14;4.05;;;1.02;;
28774;SDS011;15926;51.348;6.596;2024-03-23T14:43:40;2.15;;;0.80;;
28774;SDS011;15926;51.348;6.596;2024-03-23T14:46:09;3.97;;;1.20;;
28774;SDS011;15926;51.348;6.596;2024-03-23T14:48:35;1.02;;;0.70;;
28774;SDS011;15926;51.348;6.596;2024-03-23T14:51:03;3.75;;;0.90;;
28774;SDS011;15926;51.348;6.596;2024-03-23T14:53:33;1.50;;;0.70;;
28774;SDS011;15926;51.348;6.596;2024-03-23T14:55:59;3.00;;;0.90;;
28774;SDS011;15926;51.348;6.596;2024-03-23T14:58:26;6.93;;;1.88;;
28774;SDS011;15926;51.348;6.596;2024-03-23T15:00:52;2.63;;;0.88;;
28774;SDS011;15926;51.348;6.596;2024-03-23T15:03:18;2.45;;;0.82;;
28774;SDS011;15926;51.348;6.596;2024-03-23T15:05:54;4.57;;;0.93;;
28774;SDS011;15926;51.348;6.596;2024-03-23T15:08:20;1.08;;;0.70;;
28774;SDS011;15926;51.348;6.596;2024-03-23T15:10:46;3.65;;;1.00;;
28774;SDS011;15926;51.348;6.596;2024-03-23T15:13:12;0.73;;;0.50;;
28774;SDS011;15926;51.348;6.596;2024-03-23T15:15:42;1.60;;;0.80;;
28774;SDS011;15926;51.348;6.596;2024-03-23T15:18:10;2.22;;;0.80;;
28774;SDS011;15926;51.348;6.596;2024-03-23T15:20:37;2.65;;;0.70;;
28774;SDS011;15926;51.348;6.596;2024-03-23T15:23:03;2.05;;;0.80;;
28774;SDS011;15926;51.348;6.596;2024-03-23T15:25:30;2.92;;;1.45;;
28774;SDS011;15926;51.348;6.596;2024-03-23T15:27:57;1.23;;;0.90;;
28774;SDS011;15926;51.348;6.596;2024-03-23T15:30:24;4.93;;;1.88;;
28774;SDS011;15926;51.348;6.596;2024-03-23T15:32:50;3.45;;;1.05;;
28774;SDS011;15926;51.348;6.596;2024-03-23T15:35:17;3.38;;;0.93;;
28774;SDS011;15926;51.348;6.596;2024-03-23T15:37:44;2.13;;;0.57;;
28774;SDS011;15926;51.348;6.596;2024-03-23T15:40:10;1.95;;;0.80;;
28774;SDS011;15926;51.348;6.596;2024-03-23T15:42:38;2.78;;;0.90;;
28774;SDS011;15926;51.348;6.596;2024-03-23T15:45:06;2.90;;;0.90;;
28774;SDS011;15926;51.348;6.596;2024-03-23T15:47:32;3.63;;;0.85;;
28774;SDS011;15926;51.348;6.596;2024-03-23T15:49:58;3.63;;;1.00;;